createdAt,value
2023-10-11T00:00:41.958Z,99386.41
2023-10-11T00:03:28.593Z,99386.28
2023-10-11T00:05:56.214Z,99375.41
2023-10-11T00:08:30.731Z,99391.03
2023-10-11T00:10:59.445Z,99383.78
2023-10-11T00:13:33.803Z,99387.38
2023-10-11T00:16:08.191Z,99380.72
2023-10-11T00:18:40.447Z,99384.34
2023-10-11T00:21:17.984Z,99380.78
2023-10-11T00:23:47.368Z,99378.78
2023-10-11T00:26:15.832Z,99374.41
2023-10-11T00:28:42.557Z,99376.47
2023-10-11T00:31:20.025Z,99373.81
2023-10-11T00:33:48.312Z,99369.56
2023-10-11T00:36:17.104Z,99375.59
2023-10-11T00:38:51.619Z,99362.06
2023-10-11T00:41:20.526Z,99365.25
2023-10-11T00:43:56.361Z,99359.50
2023-10-11T00:46:27.953Z,99359.69
2023-10-11T00:49:13.794Z,99357.63
2023-10-11T00:51:43.546Z,99359.53
2023-10-11T00:54:14.036Z,99356.34
2023-10-11T00:56:44.869Z,99358.16
2023-10-11T00:59:15.778Z,99345.00
2023-10-11T01:01:46.114Z,99350.19
2023-10-11T01:04:15.565Z,99350.69
2023-10-11T01:06:42.055Z,99351.56
2023-10-11T01:09:27.351Z,99348.69
2023-10-11T01:11:53.850Z,99349.34
2023-10-11T01:14:20.257Z,99345.09
2023-10-11T01:16:46.963Z,99353.44
2023-10-11T01:19:17.413Z,99347.88
2023-10-11T01:21:49.780Z,99352.66
2023-10-11T01:24:19.255Z,99353.88
2023-10-11T01:26:45.838Z,99349.28
2023-10-11T01:29:12.525Z,99349.97
2023-10-11T01:31:39.836Z,99345.25
2023-10-11T01:34:06.449Z,99344.94
2023-10-11T01:36:33.219Z,99347.84
2023-10-11T01:39:03.385Z,99344.81
2023-10-11T01:41:29.833Z,99347.91
2023-10-11T01:43:57.835Z,99361.28
2023-10-11T01:46:27.843Z,99348.09
2023-10-11T01:48:56.164Z,99345.72
2023-10-11T01:51:30.904Z,99341.34
2023-10-11T01:54:01.242Z,99345.75
2023-10-11T01:56:29.402Z,99340.72
2023-10-11T01:59:02.605Z,99345.16
2023-10-11T02:01:31.934Z,99336.38
2023-10-11T02:04:01.235Z,99333.84
2023-10-11T02:06:33.365Z,99330.81
2023-10-11T02:09:01.199Z,99333.34
2023-10-11T02:11:30.347Z,99333.00
2023-10-11T02:13:58.662Z,99330.44
2023-10-11T02:16:25.845Z,99317.81
2023-10-11T02:18:53.812Z,99317.13
2023-10-11T02:21:21.028Z,99310.00
2023-10-11T02:23:47.514Z,99311.16
2023-10-11T02:26:13.993Z,99303.22
2023-10-11T02:28:41.174Z,99298.78
2023-10-11T02:31:08.490Z,99295.06
2023-10-11T02:33:35.401Z,99302.50
2023-10-11T02:36:18.512Z,99303.22
2023-10-11T02:38:51.116Z,99294.78
2023-10-11T02:41:26.136Z,99287.34
2023-10-11T02:43:53.710Z,99290.38
2023-10-11T02:46:24.395Z,99285.63
2023-10-11T02:48:55.524Z,99291.03
2023-10-11T02:51:25.905Z,99282.91
2023-10-11T02:53:55.636Z,99282.25
2023-10-11T02:56:25.200Z,99277.19
2023-10-11T02:58:53.141Z,99283.25
2023-10-11T03:01:22.346Z,99276.88
2023-10-11T03:03:49.372Z,99280.06
2023-10-11T03:06:16.253Z,99285.09
2023-10-11T03:08:43.162Z,99282.38
2023-10-11T03:11:16.660Z,99282.84
2023-10-11T03:13:44.446Z,99286.28
2023-10-11T03:16:14.885Z,99286.28
2023-10-11T03:18:42.835Z,99284.75
2023-10-11T03:21:18.198Z,99289.53
2023-10-11T03:23:49.225Z,99293.63
2023-10-11T03:26:23.874Z,99287.41
2023-10-11T03:29:06.696Z,99288.72
2023-10-11T03:31:41.365Z,99292.44
2023-10-11T03:34:18.774Z,99284.00
2023-10-11T03:36:52.592Z,99289.56
2023-10-11T03:39:38.517Z,99292.13
2023-10-11T03:42:08.488Z,99293.47
2023-10-11T03:44:37.342Z,99290.97
2023-10-11T03:47:08.864Z,99301.59
2023-10-11T03:49:42.055Z,99306.63
2023-10-11T03:52:25.438Z,99298.03
2023-10-11T03:55:10.458Z,99300.56
2023-10-11T03:57:42.350Z,99294.66
2023-10-11T04:00:22.694Z,99298.53
2023-10-11T04:02:57.014Z,99298.53
2023-10-11T04:05:24.251Z,99291.09
2023-10-11T04:07:50.657Z,99293.31
2023-10-11T04:10:39.796Z,99296.72
2023-10-11T04:13:10.277Z,99296.38
2023-10-11T04:15:40.302Z,99299.41
2023-10-11T04:18:14.841Z,99300.06
2023-10-11T04:20:51.627Z,99298.56
2023-10-11T04:23:18.064Z,99303.47
2023-10-11T04:25:46.146Z,99304.81
2023-10-11T04:28:13.715Z,99306.66
2023-10-11T04:30:45.326Z,99299.59
2023-10-11T04:33:14.444Z,99303.47
2023-10-11T04:35:44.314Z,99302.78
2023-10-11T04:38:14.146Z,99303.47
2023-10-11T04:40:50.325Z,99301.59
2023-10-11T04:43:24.912Z,99306.66
2023-10-11T04:48:42.184Z,99303.63
2023-10-11T04:51:21.892Z,99314.44
2023-10-11T04:53:55.108Z,99301.59
2023-10-11T04:56:41.604Z,99297.56
2023-10-11T04:59:08.196Z,99302.63
2023-10-11T05:01:47.189Z,99310.38
2023-10-11T05:04:16.126Z,99311.22
2023-10-11T05:06:43.713Z,99315.75
2023-10-11T05:09:20.554Z,99313.41
2023-10-11T05:11:59.220Z,99305.47
2023-10-11T05:14:38.526Z,99307.50
2023-10-11T05:17:14.574Z,99305.13
2023-10-11T05:19:56.728Z,99310.03
2023-10-11T05:22:29.288Z,99309.34
2023-10-11T05:25:00.632Z,99298.06
2023-10-11T05:27:36.882Z,99292.16
2023-10-11T05:30:06.666Z,99291.81
2023-10-11T05:32:34.029Z,99298.91
2023-10-11T05:35:16.178Z,99296.03
2023-10-11T05:38:01.448Z,99298.72
2023-10-11T05:40:46.649Z,99289.81
2023-10-11T05:43:31.519Z,99294.84
2023-10-11T05:46:46.686Z,99309.69
2023-10-11T05:49:31.632Z,99305.31
2023-10-11T05:51:58.062Z,99305.13
2023-10-11T05:54:35.016Z,99309.66
2023-10-11T05:57:05.414Z,99322.44
2023-10-11T05:59:38.878Z,99316.38
2023-10-11T06:02:14.451Z,99326.09
2023-10-11T06:04:41.655Z,99335.91
2023-10-11T06:07:09.012Z,99335.34
2023-10-11T06:09:44.210Z,99338.16
2023-10-11T06:12:30.510Z,99350.94
2023-10-11T06:14:58.433Z,99347.41
2023-10-11T06:17:34.553Z,99341.84
2023-10-11T06:20:21.394Z,99339.94
2023-10-11T06:22:47.828Z,99340.53
2023-10-11T06:25:14.603Z,99339.41
2023-10-11T06:27:56.112Z,99321.53
2023-10-11T06:30:23.133Z,99312.75
2023-10-11T06:32:51.741Z,99315.44
2023-10-11T06:35:27.084Z,99311.53
2023-10-11T06:37:54.008Z,99307.16
2023-10-11T06:40:39.888Z,99309.19
2023-10-11T06:43:15.319Z,99304.78
2023-10-11T06:45:42.715Z,99316.25
2023-10-11T06:48:28.779Z,99316.44
2023-10-11T06:51:11.104Z,99316.44
2023-10-11T06:53:47.913Z,99314.03
2023-10-11T06:56:21.116Z,99304.06
2023-10-11T06:58:48.225Z,99308.94
2023-10-11T07:04:23.013Z,99312.00
2023-10-11T07:06:50.740Z,99319.28
2023-10-11T07:09:23.869Z,99308.28
2023-10-11T07:12:16.044Z,99308.94
2023-10-11T07:14:43.020Z,99313.03
2023-10-11T07:17:09.554Z,99309.63
2023-10-11T07:19:37.495Z,99318.59
2023-10-11T07:22:05.954Z,99311.34
2023-10-11T07:24:34.202Z,99316.75
2023-10-11T07:27:13.651Z,99307.13
2023-10-11T07:29:51.302Z,99312.34
2023-10-11T07:32:19.865Z,99314.22
2023-10-11T07:34:49.097Z,99307.94
2023-10-11T07:37:19.428Z,99318.38
2023-10-11T07:39:48.285Z,99321.59
2023-10-11T07:42:20.116Z,99312.13
2023-10-11T07:44:51.573Z,99316.47
2023-10-11T07:47:19.693Z,99314.81
2023-10-11T07:49:46.438Z,99315.44
2023-10-11T07:52:15.058Z,99320.00
2023-10-11T07:54:41.689Z,99318.94
2023-10-11T07:57:14.379Z,99317.84
2023-10-11T07:59:42.421Z,99326.75
2023-10-11T08:02:10.288Z,99330.47
2023-10-11T08:04:45.238Z,99320.97
2023-10-11T08:07:20.540Z,99318.34
2023-10-11T08:09:47.319Z,99327.22
2023-10-11T08:12:15.939Z,99322.44
2023-10-11T08:14:46.777Z,99314.28
2023-10-11T08:17:20.199Z,99307.09
2023-10-11T08:19:49.446Z,99314.00
2023-10-11T08:22:17.049Z,99308.06
2023-10-11T08:24:49.095Z,99310.91
2023-10-11T08:27:29.188Z,99315.56
2023-10-11T08:30:10.579Z,99305.03
2023-10-11T08:32:39.747Z,99304.44
2023-10-11T08:35:07.904Z,99293.88
2023-10-11T08:37:34.602Z,99305.50
2023-10-11T08:40:02.765Z,99305.31
2023-10-11T08:42:32.184Z,99303.47
2023-10-11T08:45:03.823Z,99299.44
2023-10-11T08:47:30.925Z,99287.47
2023-10-11T08:49:57.595Z,99282.56
2023-10-11T08:52:26.487Z,99290.59
2023-10-11T08:54:52.993Z,99294.44
2023-10-11T08:57:24.584Z,99282.19
2023-10-11T08:59:58.122Z,99282.56
2023-10-11T09:02:30.251Z,99285.53
2023-10-11T09:05:13.517Z,99280.66
2023-10-11T09:07:46.537Z,99272.88
2023-10-11T09:10:29.654Z,99277.31
2023-10-11T09:12:57.921Z,99280.19
2023-10-11T09:15:33.969Z,99274.56
2023-10-11T09:18:15.682Z,99278.72
2023-10-11T09:20:45.615Z,99268.78
2023-10-11T09:23:16.371Z,99269.31
2023-10-11T09:26:02.799Z,99266.25
2023-10-11T09:28:34.116Z,99264.69
2023-10-11T09:31:12.821Z,99259.75
2023-10-11T09:33:42.071Z,99259.63
2023-10-11T09:36:09.855Z,99258.41
2023-10-11T09:38:42.582Z,99265.47
2023-10-11T09:41:09.786Z,99264.94
2023-10-11T09:43:43.885Z,99257.03
2023-10-11T09:46:14.457Z,99266.06
2023-10-11T09:48:42.119Z,99272.38
2023-10-11T09:51:15.301Z,99273.22
2023-10-11T09:53:43.239Z,99275.66
2023-10-11T09:56:33.840Z,99279.44
2023-10-11T09:59:23.427Z,99279.28
2023-10-11T10:02:03.955Z,99276.81
2023-10-11T10:04:50.889Z,99272.38
2023-10-11T10:07:30.149Z,99271.63
2023-10-11T10:10:01.813Z,99265.97
2023-10-11T10:12:36.210Z,99271.63
2023-10-11T10:15:34.897Z,99263.06
2023-10-11T10:18:07.324Z,99258.66
2023-10-11T10:20:45.741Z,99257.19
2023-10-11T10:23:15.252Z,99251.31
2023-10-11T10:26:14.821Z,99265.34
2023-10-11T10:28:51.858Z,99260.75
2023-10-11T10:31:22.991Z,99271.25
2023-10-11T10:34:16.365Z,99265.75
2023-10-11T10:36:44.171Z,99265.09
2023-10-11T10:39:10.862Z,99270.31
2023-10-11T10:41:40.357Z,99259.59
2023-10-11T10:44:11.580Z,99269.41
2023-10-11T10:46:51.532Z,99268.56
2023-10-11T10:49:20.020Z,99270.84
2023-10-11T10:51:49.328Z,99257.19
2023-10-11T10:54:23.217Z,99259.63
2023-10-11T10:56:55.660Z,99255.28
2023-10-11T10:59:23.207Z,99253.56
2023-10-11T11:01:51.681Z,99245.38
2023-10-11T11:04:30.140Z,99245.50
2023-10-11T11:06:57.044Z,99245.72
2023-10-11T11:09:30.228Z,99243.78
2023-10-11T11:14:59.605Z,99237.59
2023-10-11T11:17:47.237Z,99232.50
2023-10-11T11:20:25.595Z,99229.56
2023-10-11T11:22:53.540Z,99229.44
2023-10-11T11:25:28.722Z,99225.00
2023-10-11T11:28:02.574Z,99215.56
2023-10-11T11:30:35.374Z,99211.34
2023-10-11T11:33:11.948Z,99214.84
2023-10-11T11:35:52.032Z,99214.56
2023-10-11T11:38:22.269Z,99206.13
2023-10-11T11:40:52.640Z,99201.09
2023-10-11T11:43:21.583Z,99195.03
2023-10-11T11:45:50.036Z,99197.03
2023-10-11T11:48:24.474Z,99193.34
2023-10-11T11:50:51.172Z,99182.81
2023-10-11T11:53:19.872Z,99183.81
2023-10-11T11:55:47.515Z,99180.50
2023-10-11T11:58:17.244Z,99175.09
2023-10-11T12:01:08.015Z,99172.88
2023-10-11T12:03:37.473Z,99168.59
2023-10-11T12:06:22.970Z,99167.31
2023-10-11T12:08:58.765Z,99158.69
2023-10-11T12:11:30.105Z,99155.03
2023-10-11T12:14:01.422Z,99148.75
2023-10-11T12:16:29.776Z,99140.66
2023-10-11T12:19:00.398Z,99143.78
2023-10-11T12:21:28.421Z,99137.34
2023-10-11T12:23:55.096Z,99130.69
2023-10-11T12:26:22.231Z,99123.41
2023-10-11T12:28:49.622Z,99115.94
2023-10-11T12:31:18.287Z,99110.44
2023-10-11T12:33:45.512Z,99111.63
2023-10-11T12:36:12.516Z,99113.91
2023-10-11T12:38:40.749Z,99112.22
2023-10-11T12:41:08.578Z,99107.81
2023-10-11T12:43:35.113Z,99107.06
2023-10-11T12:46:02.158Z,99109.00
2023-10-11T12:48:29.834Z,99101.25
2023-10-11T12:50:59.066Z,99103.63
2023-10-11T12:53:30.199Z,99100.19
2023-10-11T12:55:56.809Z,99101.13
2023-10-11T12:58:28.829Z,99096.59
2023-10-11T13:01:00.086Z,99095.28
2023-10-11T13:03:27.724Z,99090.72
2023-10-11T13:05:54.769Z,99087.88
2023-10-11T13:08:29.361Z,99089.78
2023-10-11T13:10:56.747Z,99091.66
2023-10-11T13:13:24.012Z,99086.66
2023-10-11T13:16:01.782Z,99084.13
2023-10-11T13:18:32.765Z,99085.31
2023-10-11T13:21:00.954Z,99097.00
2023-10-11T13:23:30.773Z,99082.72
2023-10-11T13:26:02.544Z,99088.31
2023-10-11T13:28:29.819Z,99075.06
2023-10-11T13:30:56.967Z,99066.13
2023-10-11T13:33:23.630Z,99062.66
2023-10-11T13:35:51.139Z,99074.59
2023-10-11T13:38:21.395Z,99072.31
2023-10-11T13:40:48.112Z,99064.66
2023-10-11T13:43:14.666Z,99070.28
2023-10-11T13:45:47.260Z,99059.19
2023-10-11T13:48:15.201Z,99066.69
2023-10-11T13:50:42.893Z,99063.47
2023-10-11T13:53:14.627Z,99060.50
2023-10-11T13:55:41.972Z,99057.63
2023-10-11T13:58:10.440Z,99049.66
2023-10-11T14:00:44.985Z,99047.97
2023-10-11T14:03:17.967Z,99053.69
2023-10-11T14:05:47.110Z,99046.81
2023-10-11T14:08:25.834Z,99042.97
2023-10-11T14:10:53.011Z,99043.06
2023-10-11T14:13:25.843Z,99045.31
2023-10-11T14:16:05.646Z,99041.91
2023-10-11T14:18:35.247Z,99040.47
2023-10-11T14:21:02.389Z,99032.94
2023-10-11T14:23:29.202Z,99029.00
2023-10-11T14:25:59.359Z,99036.31
2023-10-11T14:28:25.853Z,99030.22
2023-10-11T14:30:52.422Z,99031.41
2023-10-11T14:33:20.468Z,99022.38
2023-10-11T14:35:53.860Z,99026.91
2023-10-11T14:38:23.277Z,99024.66
2023-10-11T14:40:54.968Z,99018.91
2023-10-11T14:43:28.904Z,99022.72
2023-10-11T14:45:55.688Z,99015.72
2023-10-11T14:48:22.528Z,99016.94
2023-10-11T14:50:49.075Z,99016.38
2023-10-11T14:53:15.632Z,99012.19
2023-10-11T14:55:45.082Z,99018.50
2023-10-11T14:58:12.118Z,99009.19
2023-10-11T15:00:38.704Z,99003.59
2023-10-11T15:03:07.293Z,98992.53
2023-10-11T15:05:37.614Z,99000.13
2023-10-11T15:08:06.162Z,98999.50
2023-10-11T15:10:33.884Z,98996.63
2023-10-11T15:13:02.171Z,98998.28
2023-10-11T15:15:29.089Z,98993.84
2023-10-11T15:17:57.425Z,98990.47
2023-10-11T15:20:24.119Z,98995.06
2023-10-11T15:22:53.002Z,98995.75
2023-10-11T15:25:19.553Z,98993.75
2023-10-11T15:27:46.019Z,98990.34
2023-10-11T15:30:14.430Z,98992.50
2023-10-11T15:32:41.313Z,98999.25
2023-10-11T15:35:08.510Z,98990.41
2023-10-11T15:37:35.151Z,98977.09
2023-10-11T15:40:02.043Z,98987.59
2023-10-11T15:42:29.319Z,98994.03
2023-10-11T15:44:55.921Z,98995.09
2023-10-11T15:47:22.310Z,98998.66
2023-10-11T15:49:48.839Z,98991.75
2023-10-11T15:52:15.267Z,98994.72
2023-10-11T15:54:41.654Z,98980.09
2023-10-11T15:57:08.858Z,98988.97
2023-10-11T15:59:35.331Z,98985.09
2023-10-11T16:02:07.003Z,98995.97
2023-10-11T16:04:33.774Z,98987.97
2023-10-11T16:07:00.592Z,98989.44
2023-10-11T16:09:28.199Z,98984.66
2023-10-11T16:11:54.812Z,98993.16
2023-10-11T16:14:21.271Z,98999.78
2023-10-11T16:16:47.736Z,98998.16
2023-10-11T16:19:14.238Z,99005.69
2023-10-11T16:21:41.861Z,98997.78
2023-10-11T16:24:11.631Z,98997.16
2023-10-11T16:26:39.803Z,98997.84
2023-10-11T16:29:06.343Z,98994.72
2023-10-11T16:31:33.049Z,98992.88
2023-10-11T16:33:59.813Z,98998.34
2023-10-11T16:36:26.670Z,98997.94
2023-10-11T16:38:57.276Z,98996.66
2023-10-11T16:41:24.380Z,98987.25
2023-10-11T16:43:51.511Z,98989.78
2023-10-11T16:46:31.467Z,98997.97
2023-10-11T16:48:59.999Z,98993.34
2023-10-11T16:51:36.078Z,98994.63
2023-10-11T16:54:02.727Z,98999.47
2023-10-11T16:56:33.216Z,98990.66
2023-10-11T16:59:00.170Z,98997.13
2023-10-11T17:01:26.873Z,98991.09
2023-10-11T17:03:53.835Z,98995.09
2023-10-11T17:06:21.178Z,99002.63
2023-10-11T17:08:49.089Z,98998.00
2023-10-11T17:11:15.671Z,99007.59
2023-10-11T17:13:42.484Z,98994.41
2023-10-11T17:16:09.256Z,98993.75
2023-10-11T17:18:36.128Z,99002.97
2023-10-11T17:21:04.327Z,98995.44
2023-10-11T17:23:31.940Z,98989.22
2023-10-11T17:26:14.078Z,98991.94
2023-10-11T17:28:42.881Z,98990.91
2023-10-11T17:31:11.721Z,98995.91
2023-10-11T17:33:38.560Z,98994.06
2023-10-11T17:36:09.615Z,99007.66
2023-10-11T17:38:37.499Z,98998.03
2023-10-11T17:41:09.938Z,99005.78
2023-10-11T17:43:37.864Z,98997.81
2023-10-11T17:46:10.481Z,99004.72
2023-10-11T17:48:38.419Z,98999.06
2023-10-11T17:51:08.570Z,99002.59
2023-10-11T17:53:37.539Z,99003.22
2023-10-11T17:56:05.368Z,99004.28
2023-10-11T17:58:31.832Z,98997.59
2023-10-11T18:00:58.861Z,99001.78
2023-10-11T18:03:25.438Z,98998.00
2023-10-11T18:05:52.087Z,99001.38
2023-10-11T18:08:18.600Z,98997.19
2023-10-11T18:10:45.065Z,98997.38
2023-10-11T18:13:11.450Z,98997.19
2023-10-11T18:15:38.914Z,98988.41
2023-10-11T18:18:11.340Z,98995.94
2023-10-11T18:20:39.209Z,98993.84
2023-10-11T18:23:09.993Z,98993.41
2023-10-11T18:25:37.218Z,98998.78
2023-10-11T18:28:06.308Z,98994.22
2023-10-11T18:30:33.982Z,98983.97
2023-10-11T18:33:01.375Z,98980.63
2023-10-11T18:35:28.023Z,98983.78
2023-10-11T18:37:54.657Z,98975.22
2023-10-11T18:40:21.665Z,98977.09
2023-10-11T18:42:50.811Z,98973.09
2023-10-11T18:45:18.752Z,98968.72
2023-10-11T18:47:49.275Z,98974.16
2023-10-11T18:50:16.283Z,98971.66
2023-10-11T18:52:45.838Z,98967.47
2023-10-11T18:55:14.161Z,98975.00
2023-10-11T18:57:41.518Z,98964.53
2023-10-11T19:00:13.061Z,98965.16
2023-10-11T19:02:43.551Z,98963.66
2023-10-11T19:05:10.836Z,98964.50
2023-10-11T19:07:38.712Z,98960.94
2023-10-11T19:10:08.815Z,98956.13
2023-10-11T19:12:40.835Z,98950.47
2023-10-11T19:15:07.901Z,98945.28
2023-10-11T19:17:34.705Z,98951.56
2023-10-11T19:20:02.007Z,98952.38
2023-10-11T19:22:29.616Z,98950.53
2023-10-11T19:24:56.098Z,98954.06
2023-10-11T19:27:22.709Z,98949.44
2023-10-11T19:29:49.481Z,98963.25
2023-10-11T19:32:19.507Z,98954.28
2023-10-11T19:34:49.787Z,98958.47
2023-10-11T19:37:18.941Z,98962.44
2023-10-11T19:39:46.682Z,98948.41
2023-10-11T19:42:14.371Z,98959.09
2023-10-11T19:44:41.050Z,98958.69
2023-10-11T19:47:08.176Z,98960.34
2023-10-11T19:49:34.669Z,98959.09
2023-10-11T19:52:01.738Z,98960.75
2023-10-11T19:54:29.345Z,98963.66
2023-10-11T19:56:56.007Z,98974.97
2023-10-11T19:59:24.423Z,98973.25
2023-10-11T20:01:51.077Z,98972.00
2023-10-11T20:04:17.810Z,98963.81
2023-10-11T20:06:44.541Z,98964.06
2023-10-11T20:09:11.115Z,98966.16
2023-10-11T20:11:37.661Z,98983.91
2023-10-11T20:14:04.920Z,98977.00
2023-10-11T20:16:31.537Z,98977.00
2023-10-11T20:18:58.797Z,98986.63
2023-10-11T20:21:25.428Z,98989.91
2023-10-11T20:23:55.348Z,98996.81
2023-10-11T20:26:25.917Z,98987.59
2023-10-11T20:28:57.986Z,98988.25
2023-10-11T20:31:25.330Z,98989.88
2023-10-11T20:33:52.182Z,98998.25
2023-10-11T20:36:19.346Z,98987.59
2023-10-11T20:38:47.025Z,98990.34
2023-10-11T20:41:13.648Z,98992.22
2023-10-11T20:43:40.772Z,99004.75
2023-10-11T20:46:08.217Z,98998.47
2023-10-11T20:48:36.609Z,99000.13
2023-10-11T20:51:05.599Z,98999.28
2023-10-11T20:53:36.507Z,98996.63
2023-10-11T20:56:04.906Z,98990.78
2023-10-11T20:58:31.505Z,98989.25
2023-10-11T21:00:58.198Z,99002.47
2023-10-11T21:03:25.007Z,98999.63
2023-10-11T21:05:53.945Z,99000.06
2023-10-11T21:08:26.429Z,99003.66
2023-10-11T21:10:53.832Z,99005.72
2023-10-11T21:13:26.300Z,98995.44
2023-10-11T21:16:00.907Z,98999.41
2023-10-11T21:18:28.579Z,98994.59
2023-10-11T21:20:55.763Z,98995.63
2023-10-11T21:23:22.725Z,98988.72
2023-10-11T21:25:56.977Z,98991.84
2023-10-11T21:28:25.206Z,98989.16
2023-10-11T21:30:52.215Z,98984.75
2023-10-11T21:33:19.339Z,98979.13
2023-10-11T21:35:45.929Z,98970.78
2023-10-11T21:38:12.734Z,98960.34
2023-10-11T21:40:42.406Z,98955.75
2023-10-11T21:43:13.279Z,98955.34
2023-10-11T21:45:40.962Z,98954.47
2023-10-11T21:48:10.664Z,98945.69
2023-10-11T21:50:38.390Z,98951.97
2023-10-11T21:53:05.108Z,98945.28
2023-10-11T21:55:31.519Z,98948.81
2023-10-11T21:58:01.086Z,98952.41
2023-10-11T22:00:46.652Z,98946.53
2023-10-11T22:03:14.944Z,98949.03
2023-10-11T22:05:41.434Z,98954.47
2023-10-11T22:08:07.846Z,98951.56
2023-10-11T22:10:39.072Z,98945.91
2023-10-11T22:13:05.855Z,98940.66
2023-10-11T22:15:32.332Z,98939.44
2023-10-11T22:17:58.797Z,98944.88
2023-10-11T22:20:27.804Z,98943.38
2023-10-11T22:22:57.795Z,98936.09
2023-10-11T22:25:25.414Z,98940.03
2023-10-11T22:27:58.983Z,98936.06
2023-10-11T22:30:26.007Z,98941.94
2023-10-11T22:32:54.055Z,98935.03
2023-10-11T22:35:21.194Z,98933.56
2023-10-11T22:37:48.543Z,98937.53
2023-10-11T22:40:16.515Z,98944.03
2023-10-11T22:42:44.219Z,98934.59
2023-10-11T22:45:12.369Z,98939.00
2023-10-11T22:47:39.282Z,98947.59
2023-10-11T22:50:07.334Z,98944.03
2023-10-11T22:52:35.506Z,98946.69
2023-10-11T22:55:09.238Z,98947.31
2023-10-11T22:57:38.169Z,98942.47
2023-10-11T23:00:11.858Z,98935.13
2023-10-11T23:02:39.653Z,98947.69
2023-10-11T23:05:07.364Z,98952.28
2023-10-11T23:07:34.826Z,98949.97
2023-10-11T23:10:01.257Z,98947.84
2023-10-11T23:12:28.282Z,98949.13
2023-10-11T23:14:55.942Z,98946.00
2023-10-11T23:17:23.860Z,98941.41
2023-10-11T23:19:52.223Z,98941.22
2023-10-11T23:22:24.610Z,98940.56
2023-10-11T23:24:54.433Z,98953.25
2023-10-11T23:27:29.110Z,98955.97
2023-10-11T23:30:01.696Z,98957.16
2023-10-11T23:32:29.768Z,98960.06
2023-10-11T23:34:58.530Z,98972.91
2023-10-11T23:37:30.967Z,98972.44
2023-10-11T23:40:11.622Z,98970.06
2023-10-11T23:42:40.196Z,98963.06
2023-10-11T23:45:16.981Z,98956.84
2023-10-11T23:47:47.652Z,98960.75
2023-10-11T23:50:21.705Z,98953.66
2023-10-11T23:52:57.748Z,98952.81
2023-10-11T23:55:26.595Z,98950.53
2023-10-11T23:57:56.384Z,98947.38
